Time;durP1;ratioP1;P1;durP2;ratioP2;P2;SDS_P1;SDS_P2;PMS_P1;PMS_P2;Temp;Humidity;BMP_temperature;BMP_pressure;BME280_temperature;BME280_humidity;BME280_pressure;Samples;Min_cycle;Max_cycle;Signal;HPM_P1;HPM_P2
2022/11/15 00:00:47;;;;;;;52.83;33.40;;;;;;;9.56;100.00;100850.50;5050181;28;20111;-70
2022/11/15 00:03:16;;;;;;;49.38;32.58;;;;;;;9.21;100.00;100786.56;5032848;28;20116;-69
2022/11/15 00:05:42;;;;;;;46.60;31.35;;;;;;;9.40;100.00;100791.44;5032424;28;20028;-70
2022/11/15 00:08:08;;;;;;;50.08;32.28;;;;;;;9.49;100.00;100796.41;5050348;28;20033;-69
2022/11/15 00:10:33;;;;;;;50.33;32.80;;;;;;;9.73;100.00;100855.41;5032781;28;20032;-69
2022/11/15 00:12:59;;;;;;;52.78;31.80;;;;;;;9.66;100.00;100838.56;5031999;28;20037;-72
2022/11/15 00:15:24;;;;;;;52.75;33.50;;;;;;;9.56;100.00;100831.06;5065155;28;20033;-70
2022/11/15 00:17:50;;;;;;;51.25;32.88;;;;;;;9.69;100.00;100841.03;5050358;28;20079;-71
2022/11/15 00:20:17;;;;;;;53.97;33.72;;;;;;;9.43;100.00;100799.00;5050139;28;20127;-71
2022/11/15 00:22:42;;;;;;;52.00;33.22;;;;;;;9.17;100.00;100785.75;5032133;28;20120;-69
2022/11/15 00:25:08;;;;;;;52.83;33.55;;;;;;;9.59;100.00;100851.31;5031457;28;20132;-70
2022/11/15 00:27:33;;;;;;;50.13;32.45;;;;;;;9.41;100.00;100784.66;5031649;28;20470;-69
2022/11/15 00:29:59;;;;;;;52.47;32.20;;;;;;;9.63;100.00;100820.84;5032047;28;20029;-69
2022/11/15 00:32:24;;;;;;;52.25;33.90;;;;;;;9.50;100.00;100827.72;5049863;28;20033;-69
2022/11/15 00:34:51;;;;;;;53.63;33.63;;;;;;;9.29;100.00;100772.13;5049512;28;20036;-70
2022/11/15 00:37:16;;;;;;;51.78;33.35;;;;;;;9.30;100.00;100751.81;5032151;28;20507;-70
2022/11/15 00:39:42;;;;;;;53.30;33.33;;;;;;;9.19;100.00;100745.16;5031864;28;20071;-73
2022/11/15 00:42:07;;;;;;;52.88;33.50;;;;;;;9.69;100.00;100819.03;5032128;28;20838;-70
2022/11/15 00:44:32;;;;;;;51.55;33.17;;;;;;;9.33;100.00;100745.88;5035428;28;20037;-70
2022/11/15 00:46:58;;;;;;;51.63;33.58;;;;;;;9.40;100.00;100761.00;5036072;28;20033;-71
2022/11/15 00:49:23;;;;;;;53.88;33.03;;;;;;;9.70;100.00;100813.13;5036115;28;20044;-71
2022/11/15 00:51:48;;;;;;;53.97;32.88;;;;;;;9.55;100.00;100782.81;5053448;28;20116;-72
2022/11/15 00:54:14;;;;;;;51.97;32.42;;;;;;;9.10;100.00;100735.09;5053808;28;20515;-70
2022/11/15 00:56:39;;;;;;;53.65;33.70;;;;;;;9.46;100.00;100780.38;5036069;28;20029;-70
2022/11/15 00:59:05;;;;;;;52.80;32.50;;;;;;;9.22;100.00;100740.88;5053572;28;20029;-70
2022/11/15 01:01:31;;;;;;;50.53;33.05;;;;;;;9.59;100.00;100790.38;5035800;28;20464;-70
2022/11/15 01:03:57;;;;;;;52.47;32.67;;;;;;;9.50;100.00;100798.13;5053693;28;20033;-70
2022/11/15 01:06:22;;;;;;;50.15;32.17;;;;;;;9.00;100.00;100734.34;5037177;28;20033;-71
2022/11/15 01:08:47;;;;;;;51.17;31.80;;;;;;;8.95;100.00;100725.09;5054272;28;20530;-70
2022/11/15 01:11:13;;;;;;;49.72;31.17;;;;;;;9.37;100.00;100780.47;5034648;28;20132;-69
2022/11/15 01:13:40;;;;;;;48.50;30.85;;;;;;;9.43;100.00;100771.09;5034790;28;20103;-69
2022/11/15 01:16:10;;;;;;;51.33;31.05;;;;;;;9.19;100.00;100766.28;5035201;28;20029;-70
2022/11/15 01:18:36;;;;;;;50.63;31.58;;;;;;;9.42;100.00;100787.19;5053084;28;20037;-71
2022/11/15 01:21:10;;;;;;;49.25;30.58;;;;;;;9.32;100.00;100789.84;5053633;28;20029;-71
2022/11/15 01:23:35;;;;;;;51.88;31.15;;;;;;;9.54;100.00;100802.31;5053416;28;20033;-70
2022/11/15 01:26:02;;;;;;;50.15;30.73;;;;;;;9.42;100.00;100769.44;5034955;28;20041;-71
2022/11/15 01:28:33;;;;;;;48.40;30.30;;;;;;;9.48;100.00;100801.50;5034878;28;20032;-72
2022/11/15 01:30:59;;;;;;;50.50;30.08;;;;;;;9.45;100.00;100788.84;5035122;28;20124;-71
2022/11/15 01:33:25;;;;;;;50.38;30.08;;;;;;;9.13;100.00;100715.59;5035125;28;20563;-71
2022/11/15 01:35:51;;;;;;;54.20;31.02;;;;;;;9.49;100.00;100787.94;5035011;28;20148;-72
2022/11/15 01:38:16;;;;;;;53.33;30.60;;;;;;;9.11;100.00;100727.44;5035148;28;20122;-72
2022/11/15 01:40:41;;;;;;;51.05;30.77;;;;;;;9.29;100.00;100785.63;5034805;28;20961;-71
2022/11/15 01:43:27;;;;;;;53.75;31.15;;;;;;;8.92;100.00;100710.75;5052954;28;20049;-72
2022/11/15 01:46:00;;;;;;;50.38;30.58;;;;;;;8.58;100.00;100662.06;5032344;28;20123;-72
2022/11/15 01:48:31;;;;;;;48.20;28.48;;;;;;;8.93;100.00;100729.34;5068089;28;20032;-71
2022/11/15 01:50:59;;;;;;;47.63;28.83;;;;;;;8.50;100.00;100653.69;5053193;28;20067;-71
2022/11/15 01:53:26;;;;;;;53.30;30.70;;;;;;;8.88;100.00;100721.78;5067604;28;20458;-72
2022/11/15 01:55:53;;;;;;;53.80;29.08;;;;;;;9.29;100.00;100788.16;5035369;28;20041;-71
2022/11/15 01:58:19;;;;;;;50.55;30.20;;;;;;;8.70;100.00;100701.66;5053001;28;20519;-70
2022/11/15 02:00:44;;;;;;;55.83;30.85;;;;;;;8.69;100.00;100690.66;5034713;28;20048;-71
2022/11/15 02:03:10;;;;;;;51.88;30.75;;;;;;;9.27;100.00;100776.38;5053006;28;20033;-71
2022/11/15 02:05:37;;;;;;;54.65;30.48;;;;;;;9.20;100.00;100770.50;5052991;28;20029;-71
2022/11/15 02:08:03;;;;;;;54.70;31.00;;;;;;;9.20;100.00;100764.59;5034261;28;20035;-72
2022/11/15 02:10:28;;;;;;;55.13;31.80;;;;;;;8.54;100.00;100654.47;5052679;28;20021;-72
2022/11/15 02:12:56;;;;;;;50.10;29.85;;;;;;;9.17;100.00;100737.53;5052662;28;20036;-72
2022/11/15 02:15:26;;;;;;;52.15;30.10;;;;;;;9.06;100.00;100762.19;5037196;28;20040;-72
2022/11/15 02:18:05;;;;;;;55.38;30.27;;;;;;;8.96;100.00;100717.47;5054464;28;20020;-72
2022/11/15 02:20:46;;;;;;;52.67;30.73;;;;;;;9.37;100.00;100778.78;5054537;28;20025;-71
2022/11/15 02:23:46;;;;;;;52.03;30.52;;;;;;;9.43;100.00;100788.03;5072389;28;20036;-72
2022/11/15 02:26:36;;;;;;;54.30;30.80;;;;;;;8.89;100.00;100700.66;5036872;28;20403;-71
2022/11/15 02:29:03;;;;;;;48.20;29.60;;;;;;;9.31;100.00;100752.66;5072478;28;20127;-72
2022/11/15 02:31:47;;;;;;;51.83;30.20;;;;;;;9.32;100.00;100769.53;5072091;28;20040;-71
2022/11/15 02:34:43;;;;;;;53.33;30.55;;;;;;;9.21;100.00;100748.53;5054147;28;20047;-71
2022/11/15 02:37:20;;;;;;;48.50;29.55;;;;;;;9.10;100.00;100735.94;5072169;28;20029;-73
2022/11/15 02:39:58;;;;;;;51.80;31.85;;;;;;;9.25;100.00;100761.13;5054711;28;20037;-73
2022/11/15 02:45:23;;;;;;;49.90;30.20;;;;;;;8.85;100.00;100682.94;5072211;28;20067;-71
2022/11/15 02:47:52;;;;;;;51.80;30.40;;;;;;;9.07;100.00;100727.53;5053980;28;20039;-72
2022/11/15 02:50:23;;;;;;;56.78;32.03;;;;;;;8.41;100.00;100633.50;5071820;28;20039;-72
2022/11/15 02:52:50;;;;;;;56.50;33.27;;;;;;;9.26;100.00;100759.44;5071320;28;20074;-73
2022/11/15 02:55:48;;;;;;;52.85;31.77;;;;;;;9.14;100.00;100744.34;5072046;28;20291;-72
2022/11/15 02:59:10;;;;;;;55.58;31.58;;;;;;;9.26;100.00;100757.75;5056041;28;20060;-72
2022/11/15 03:01:59;;;;;;;52.30;31.48;;;;;;;9.30;100.00;100756.03;4973771;28;20041;-71
2022/11/15 03:04:41;;;;;;;58.38;32.58;;;;;;;9.17;100.00;100765.44;4960671;28;20069;-71
2022/11/15 03:07:34;;;;;;;54.35;31.23;;;;;;;9.26;100.00;100754.38;4989623;28;20144;-72
2022/11/15 03:10:12;;;;;;;48.50;30.90;;;;;;;8.90;100.00;100678.66;5025398;28;20044;-72
2022/11/15 03:13:06;;;;;;;56.75;31.48;;;;;;;9.18;100.00;100754.47;5053782;28;20388;-72
2022/11/15 03:15:37;;;;;;;54.80;31.42;;;;;;;9.17;100.00;100737.53;5015877;28;20041;-74
2022/11/15 03:18:22;;;;;;;55.03;32.22;;;;;;;8.71;100.00;100647.59;5069920;28;20032;-73
2022/11/15 03:20:52;;;;;;;53.08;31.77;;;;;;;9.30;100.00;100745.88;5053374;28;20032;-73
2022/11/15 03:23:17;;;;;;;49.58;29.73;;;;;;;9.27;100.00;100740.84;5053985;28;20024;-71
2022/11/15 03:25:47;;;;;;;48.55;30.67;;;;;;;9.38;100.00;100742.41;5052502;28;20035;-71
2022/11/15 03:28:18;;;;;;;55.63;32.65;;;;;;;9.24;100.00;100733.25;5052551;28;20039;-71
2022/11/15 03:30:47;;;;;;;54.60;31.67;;;;;;;9.32;100.00;100737.41;5070701;28;20524;-71
2022/11/15 03:33:13;;;;;;;57.67;32.45;;;;;;;8.90;100.00;100678.66;5063390;28;20047;-71
2022/11/15 03:35:43;;;;;;;58.53;32.88;;;;;;;9.29;100.00;100734.06;5052781;28;20074;-71
2022/11/15 03:38:19;;;;;;;52.78;31.80;;;;;;;8.88;100.00;100657.53;5052980;28;20037;-70
2022/11/15 03:40:51;;;;;;;59.75;33.33;;;;;;;8.62;100.00;100630.75;5070591;28;20028;-72
2022/11/15 03:43:43;;;;;;;55.97;32.85;;;;;;;9.09;100.00;100730.88;5042840;28;20107;-71
2022/11/15 03:46:16;;;;;;;53.88;31.55;;;;;;;8.68;100.00;100657.75;5050995;28;20033;-71
2022/11/15 03:48:49;;;;;;;54.42;32.75;;;;;;;8.77;100.00;100661.88;5051106;28;20460;-70
2022/11/15 03:51:16;;;;;;;55.83;32.17;;;;;;;9.11;100.00;100717.31;5050514;28;20033;-71
2022/11/15 03:53:42;;;;;;;54.38;32.92;;;;;;;8.78;100.00;100659.34;5028955;28;20046;-72
2022/11/15 03:56:07;;;;;;;52.35;31.98;;;;;;;8.74;100.00;100633.19;5030408;28;20032;-70
2022/11/15 03:58:33;;;;;;;54.03;32.38;;;;;;;9.25;100.00;100724.81;5030279;28;20044;-72
2022/11/15 04:00:59;;;;;;;53.92;31.27;;;;;;;9.15;100.00;100698.66;5028902;28;20052;-70
2022/11/15 04:03:25;;;;;;;43.55;25.52;;;;;;;10.61;100.00;100629.75;5029239;28;20036;-72
2022/11/15 04:05:50;;;;;;;51.67;31.98;;;;;;;8.68;100.00;100591.84;5062668;28;20022;-71
2022/11/15 04:08:16;;;;;;;57.33;34.38;;;;;;;9.32;100.00;100706.09;5012921;28;20063;-73
2022/11/15 04:10:41;;;;;;;58.83;33.80;;;;;;;9.37;100.00;100706.88;5028439;28;20114;-72
2022/11/15 04:13:07;;;;;;;55.05;31.92;;;;;;;8.46;100.00;100582.78;5030480;28;20167;-73
2022/11/15 04:15:32;;;;;;;53.88;32.47;;;;;;;8.73;100.00;100635.75;5033864;28;20488;-73
2022/11/15 04:17:58;;;;;;;55.85;32.53;;;;;;;8.77;100.00;100637.38;5049798;28;20024;-71
2022/11/15 04:26:12;;;;;;;;;;;;;;;9.25;100.00;100707.03;5030998;28;20040;-71
2022/11/15 04:31:22;;;;;;;56.80;34.08;;;;;;;8.89;100.00;100652.47;5039981;28;20056;-72
2022/11/15 04:33:47;;;;;;;61.33;40.17;;;;;;;9.50;100.00;100703.38;5048468;28;20021;-72
2022/11/15 04:38:57;;;;;;;68.45;47.13;;;;;;;8.82;100.00;100660.97;5050244;28;20067;-71
2022/11/15 04:41:22;;;;;;;71.45;48.42;;;;;;;9.32;100.00;100716.25;5048255;28;20675;-73
2022/11/15 04:43:48;;;;;;;68.20;48.97;;;;;;;9.19;100.00;100692.69;5049396;28;20116;-72
2022/11/15 04:46:13;;;;;;;79.35;58.38;;;;;;;9.22;100.00;100707.91;5048651;28;20036;-71
2022/11/15 04:48:38;;;;;;;81.53;59.33;;;;;;;9.24;100.00;100682.50;5049602;28;20083;-71
2022/11/15 04:51:04;;;;;;;68.80;47.47;;;;;;;9.47;100.00;100703.38;5049745;28;20041;-71
2022/11/15 04:53:30;;;;;;;63.28;39.80;;;;;;;8.87;100.00;100603.47;5050640;28;20047;-70
2022/11/15 04:55:57;;;;;;;58.63;37.03;;;;;;;8.71;100.00;100610.38;5068483;28;20048;-72
2022/11/15 04:58:23;;;;;;;57.90;35.22;;;;;;;9.17;100.00;100660.63;5068885;28;20075;-72
2022/11/15 05:00:48;;;;;;;58.90;36.05;;;;;;;9.39;100.00;100703.47;5056219;28;20124;-72
2022/11/15 05:05:58;;;;;;;62.08;35.75;;;;;;;8.83;100.00;100624.66;5049215;28;20099;-71
2022/11/15 05:08:24;;;;;;;74.53;44.38;;;;;;;9.13;100.00;100638.69;5031846;28;20040;-71
2022/11/15 05:10:50;;;;;;;81.50;45.22;;;;;;;9.28;100.00;100672.31;5048308;28;20041;-71
2022/11/15 05:13:16;;;;;;;73.38;41.85;;;;;;;9.14;100.00;100666.56;5047532;28;20044;-75
2022/11/15 05:15:45;;;;;;;62.55;35.38;;;;;;;9.40;100.00;100630.75;5048757;28;20833;-72
2022/11/15 05:18:11;;;;;;;58.60;33.63;;;;;;;9.29;100.00;100690.94;5048582;28;20087;-71
2022/11/15 05:20:36;;;;;;;53.30;31.70;;;;;;;8.84;100.00;100622.94;5032698;28;20048;-74
2022/11/15 05:23:02;;;;;;;52.28;31.17;;;;;;;9.46;100.00;100696.63;5027214;28;20496;-71
2022/11/15 05:25:27;;;;;;;55.25;32.58;;;;;;;9.15;100.00;100693.59;5028100;28;20419;-72
2022/11/15 05:27:53;;;;;;;55.13;32.45;;;;;;;9.23;100.00;100698.59;5026806;28;20026;-71
2022/11/15 05:30:19;;;;;;;57.92;33.65;;;;;;;8.97;100.00;100627.03;5030346;28;20060;-71
2022/11/15 05:32:45;;;;;;;58.42;34.45;;;;;;;8.93;100.00;100633.00;5031998;28;20033;-71
2022/11/15 05:35:17;;;;;;;56.10;34.00;;;;;;;8.68;100.00;100592.69;5031632;28;20052;-71
2022/11/15 05:37:43;;;;;;;56.15;34.03;;;;;;;9.11;100.00;100698.75;5047411;28;20056;-71
2022/11/15 05:40:08;;;;;;;59.42;34.50;;;;;;;9.03;100.00;100654.88;5072018;28;20540;-71
2022/11/15 05:42:34;;;;;;;58.70;33.63;;;;;;;9.29;100.00;100704.44;5051996;28;20375;-71
2022/11/15 05:45:02;;;;;;;58.13;33.42;;;;;;;8.89;100.00;100641.50;5051081;28;20044;-73
2022/11/15 05:47:30;;;;;;;49.65;27.38;;;;;;;10.54;100.00;100703.63;5054515;28;20038;-74
2022/11/15 05:49:57;;;;;;;51.33;30.95;;;;;;;9.97;100.00;100720.50;5064359;28;20029;-71
2022/11/15 05:52:27;;;;;;;55.60;32.70;;;;;;;9.02;100.00;100656.56;5034409;28;20582;-72
2022/11/15 05:54:55;;;;;;;52.63;32.10;;;;;;;9.54;100.00;100710.94;5050364;28;20048;-73
2022/11/15 05:57:23;;;;;;;55.85;33.60;;;;;;;8.88;100.00;100624.59;5051525;28;20037;-71
2022/11/15 05:59:49;;;;;;;57.95;34.17;;;;;;;8.92;100.00;100670.19;5051690;28;20056;-72
2022/11/15 06:02:15;;;;;;;60.03;33.63;;;;;;;9.15;100.00;100680.09;5050923;28;20444;-72
2022/11/15 06:04:40;;;;;;;58.65;34.72;;;;;;;8.95;100.00;100652.41;5051319;28;20033;-72
2022/11/15 06:07:06;;;;;;;58.00;35.30;;;;;;;9.32;100.00;100726.41;5051674;28;20136;-72
2022/11/15 06:09:31;;;;;;;60.17;34.75;;;;;;;9.30;100.00;100713.75;5052912;28;20025;-73
2022/11/15 06:11:56;;;;;;;57.03;35.58;;;;;;;8.82;100.00;100640.69;5051126;28;20127;-72
2022/11/15 06:14:22;;;;;;;59.53;35.35;;;;;;;9.34;100.00;100738.22;5051293;28;20040;-71
2022/11/15 06:16:47;;;;;;;58.60;35.55;;;;;;;9.42;100.00;100711.06;5052490;28;20064;-73
2022/11/15 06:19:13;;;;;;;59.15;34.10;;;;;;;9.37;100.00;100710.25;5051280;28;20029;-72
2022/11/15 06:21:38;;;;;;;60.35;35.90;;;;;;;9.20;100.00;100663.97;5051623;28;20033;-73
2022/11/15 06:24:05;;;;;;;58.42;35.25;;;;;;;9.13;100.00;100652.19;5050795;28;20029;-73
2022/11/15 06:26:30;;;;;;;55.92;34.55;;;;;;;9.21;100.00;100680.84;5051215;28;20040;-73
2022/11/15 06:28:56;;;;;;;58.30;35.50;;;;;;;9.23;100.00;100668.16;5051564;28;20036;-73
2022/11/15 06:31:22;;;;;;;61.78;35.75;;;;;;;8.68;100.00;100584.25;5051635;28;20074;-73
2022/11/15 06:33:49;;;;;;;58.40;35.05;;;;;;;9.23;100.00;100703.69;5051210;28;20051;-73
2022/11/15 06:36:16;;;;;;;56.55;34.95;;;;;;;9.04;100.00;100661.59;5051260;28;20392;-72
2022/11/15 06:38:41;;;;;;;58.67;34.45;;;;;;;9.41;100.00;100733.91;5051107;28;20483;-74
2022/11/15 06:41:09;;;;;;;59.85;34.83;;;;;;;9.35;100.00;100719.59;5051366;28;20120;-72
2022/11/15 06:43:35;;;;;;;55.67;32.03;;;;;;;8.61;100.00;100587.72;5050845;28;20182;-72
2022/11/15 06:46:02;;;;;;;57.63;35.05;;;;;;;9.05;100.00;100684.41;5050766;28;20539;-72
2022/11/15 06:48:28;;;;;;;61.67;34.80;;;;;;;9.42;100.00;100735.59;5052027;28;20068;-72
2022/11/15 06:50:56;;;;;;;62.92;33.90;;;;;;;9.13;100.00;100649.66;5050602;28;20116;-71
2022/11/15 06:53:22;;;;;;;55.60;33.70;;;;;;;9.65;100.00;100737.88;5051948;28;20029;-72
2022/11/15 06:55:47;;;;;;;57.53;33.78;;;;;;;8.94;100.00;100648.19;5051141;28;20078;-72
2022/11/15 06:58:13;;;;;;;55.67;33.63;;;;;;;8.95;100.00;100628.75;5034059;28;20424;-73
2022/11/15 07:00:39;;;;;;;60.70;33.15;;;;;;;9.48;100.00;100723.69;5050474;28;20039;-72
2022/11/15 07:03:04;;;;;;;62.53;34.95;;;;;;;9.19;100.00;100656.38;5051729;28;20052;-71
2022/11/15 07:05:30;;;;;;;59.08;35.60;;;;;;;9.03;100.00;100657.41;5033794;28;20511;-72
2022/11/15 07:07:57;;;;;;;58.33;34.92;;;;;;;9.26;100.00;100679.13;5033556;28;20087;-73
2022/11/15 07:10:24;;;;;;;59.10;36.03;;;;;;;9.05;100.00;100627.78;5033393;28;20529;-72
2022/11/15 07:12:54;;;;;;;61.40;35.15;;;;;;;9.67;100.00;100719.22;5033619;28;20501;-72
2022/11/15 07:15:22;;;;;;;56.90;32.15;;;;;;;9.39;100.00;100706.00;5033662;28;20044;-73
2022/11/15 07:17:48;;;;;;;55.60;32.83;;;;;;;9.43;100.00;100711.88;5033740;28;20470;-72
2022/11/15 07:20:14;;;;;;;56.70;32.30;;;;;;;9.15;100.00;100658.09;5033528;28;20033;-72
2022/11/15 07:22:40;;;;;;;54.38;31.33;;;;;;;9.31;100.00;100661.31;5033539;28;20028;-72
2022/11/15 07:25:06;;;;;;;57.95;32.15;;;;;;;9.40;100.00;100663.72;5033568;28;20114;-72
2022/11/15 07:27:31;;;;;;;55.30;31.75;;;;;;;9.49;100.00;100676.28;5033417;28;20075;-72
2022/11/15 07:29:56;;;;;;;57.50;32.58;;;;;;;9.62;100.00;100675.28;5033621;28;20025;-73
2022/11/15 07:32:22;;;;;;;56.03;31.55;;;;;;;9.84;100.00;100719.84;5033443;28;20040;-73
2022/11/15 07:34:47;;;;;;;53.75;30.33;;;;;;;9.86;100.00;100719.84;5033132;28;20037;-73
2022/11/15 07:37:13;;;;;;;54.72;31.05;;;;;;;9.53;100.00;100667.78;5033232;28;20411;-74
2022/11/15 07:39:39;;;;;;;52.55;31.10;;;;;;;9.77;100.00;100661.53;5033319;28;20132;-72
2022/11/15 07:44:49;;;;;;;49.83;29.30;;;;;;;9.51;100.00;100665.25;5051227;28;20110;-74
2022/11/15 07:47:14;;;;;;;52.08;29.35;;;;;;;9.94;100.00;100731.56;5033407;28;20025;-73
2022/11/15 07:49:40;;;;;;;47.75;27.67;;;;;;;9.40;100.00;100673.88;5033355;28;20036;-73
2022/11/15 07:52:05;;;;;;;51.10;27.73;;;;;;;9.22;100.00;100629.28;5032838;28;20041;-72
2022/11/15 07:54:31;;;;;;;44.47;27.83;;;;;;;9.67;100.00;100688.75;5033055;28;20064;-73
2022/11/15 07:56:56;;;;;;;50.28;28.20;;;;;;;9.56;100.00;100638.13;5033153;28;20178;-74
2022/11/15 07:59:22;;;;;;;48.13;28.55;;;;;;;9.53;100.00;100643.25;5033057;28;20039;-73
2022/11/15 08:01:47;;;;;;;47.70;27.63;;;;;;;10.05;100.00;100741.56;5033192;28;20466;-73
2022/11/15 08:04:13;;;;;;;48.20;27.92;;;;;;;9.91;100.00;100693.50;5051081;28;20036;-73
2022/11/15 08:06:38;;;;;;;54.17;28.50;;;;;;;9.25;100.00;100585.28;5032981;28;20044;-73
2022/11/15 08:09:04;;;;;;;48.03;28.48;;;;;;;9.74;100.00;100641.28;5032969;28;20525;-73
2022/11/15 08:11:29;;;;;;;50.92;29.38;;;;;;;9.97;100.00;100683.25;5033109;28;20502;-73
2022/11/15 08:13:55;;;;;;;47.97;28.50;;;;;;;9.69;100.00;100679.41;5032958;28;20070;-73
2022/11/15 08:16:20;;;;;;;46.10;27.65;;;;;;;9.67;100.00;100686.22;5032608;28;20060;-73
2022/11/15 08:18:46;;;;;;;42.92;26.90;;;;;;;9.66;100.00;100674.41;5032673;28;20489;-72
2022/11/15 08:21:17;;;;;;;43.28;25.77;;;;;;;9.66;100.00;100664.25;5032498;28;20090;-72
2022/11/15 08:23:43;;;;;;;45.88;25.73;;;;;;;9.68;100.00;100687.91;5032540;28;20025;-72
2022/11/15 08:26:09;;;;;;;47.50;27.27;;;;;;;9.79;100.00;100667.44;5032805;28;20037;-72
2022/11/15 08:28:34;;;;;;;47.05;27.42;;;;;;;9.49;100.00;100628.06;5050271;28;20033;-72
2022/11/15 08:31:00;;;;;;;47.08;27.35;;;;;;;9.82;100.00;100665.72;5032563;28;20031;-73
2022/11/15 08:33:27;;;;;;;45.92;27.00;;;;;;;9.99;100.00;100694.25;5032415;28;20028;-73
2022/11/15 08:35:56;;;;;;;51.17;28.30;;;;;;;9.90;100.00;100669.00;5032605;28;20052;-72
2022/11/15 08:38:21;;;;;;;46.78;26.98;;;;;;;9.84;100.00;100674.16;5032663;28;20041;-72
2022/11/15 08:40:47;;;;;;;45.30;26.60;;;;;;;10.03;100.00;100703.50;5032447;28;20486;-71
2022/11/15 08:43:12;;;;;;;49.08;28.83;;;;;;;9.92;100.00;100646.94;5032235;28;20039;-71
2022/11/15 08:45:38;;;;;;;48.78;28.30;;;;;;;10.39;100.00;100685.22;5032688;28;20479;-72
2022/11/15 08:48:04;;;;;;;43.55;26.10;;;;;;;10.40;100.00;100726.69;5032597;28;20035;-72
2022/11/15 08:50:29;;;;;;;44.20;25.92;;;;;;;10.55;100.00;100718.00;5048815;28;20051;-72
2022/11/15 08:52:55;;;;;;;42.83;27.33;;;;;;;10.16;100.00;100655.94;5032915;28;20090;-72
2022/11/15 08:55:20;;;;;;;48.22;28.42;;;;;;;10.16;100.00;100651.66;5033775;28;20111;-72
2022/11/15 08:57:46;;;;;;;48.00;27.25;;;;;;;10.53;100.00;100710.41;5050343;28;20032;-71
2022/11/15 09:00:13;;;;;;;47.17;28.40;;;;;;;10.21;100.00;100655.00;5049811;28;20116;-72
2022/11/15 09:02:41;;;;;;;46.08;27.52;;;;;;;10.23;100.00;100611.75;5031863;28;20060;-72
2022/11/15 09:05:08;;;;;;;45.25;27.35;;;;;;;10.74;100.00;100692.22;5052497;28;20025;-73
2022/11/15 09:07:33;;;;;;;49.42;28.08;;;;;;;9.99;100.00;100602.81;5036032;28;20082;-73
2022/11/15 09:09:59;;;;;;;45.80;27.70;;;;;;;10.33;100.00;100677.69;5036158;28;20033;-71
2022/11/15 09:12:25;;;;;;;43.55;26.60;;;;;;;10.56;100.00;100676.47;5035848;28;20025;-72
2022/11/15 09:14:50;;;;;;;46.13;28.10;;;;;;;10.18;100.00;100611.84;5036160;28;20035;-73
2022/11/15 09:17:16;;;;;;;45.95;27.27;;;;;;;10.36;100.00;100613.22;5035655;28;20032;-72
2022/11/15 09:19:41;;;;;;;45.25;27.40;;;;;;;10.60;100.00;100655.22;5036474;28;20115;-72
2022/11/15 09:22:07;;;;;;;45.97;28.38;;;;;;;9.84;100.00;100549.72;5035673;28;20079;-71
2022/11/15 09:24:33;;;;;;;43.42;27.88;;;;;;;10.44;100.00;100640.19;5035541;28;20090;-71
2022/11/15 09:26:59;;;;;;;47.53;28.52;;;;;;;10.73;100.00;100669.38;5035916;28;20111;-71
2022/11/15 09:29:25;;;;;;;48.00;28.10;;;;;;;10.63;100.00;100622.94;5035915;28;20040;-72
2022/11/15 09:31:52;;;;;;;44.47;28.73;;;;;;;10.89;100.00;100638.56;5035693;28;20053;-71
2022/11/15 09:34:18;;;;;;;44.95;27.10;;;;;;;10.62;100.00;100635.69;5053693;28;20044;-70
2022/11/15 09:36:43;;;;;;;44.72;28.08;;;;;;;10.42;100.00;100596.19;5036113;28;20028;-71
2022/11/15 09:39:09;;;;;;;48.67;30.73;;;;;;;10.48;100.00;100610.47;5035191;28;20040;-70
2022/11/15 09:41:49;;;;;;;45.08;28.35;;;;;;;11.07;100.00;100676.34;5053748;28;20029;-71
2022/11/15 09:44:27;;;;;;;47.83;28.27;;;;;;;11.00;100.00;100673.97;5035398;28;20475;-71
2022/11/15 09:47:30;;;;;;;47.90;28.50;;;;;;;11.00;100.00;100668.88;5035744;28;20032;-71
2022/11/15 09:49:59;;;;;;;46.17;27.20;;;;;;;10.85;100.00;100662.38;5050546;28;20132;-71
2022/11/15 09:52:25;;;;;;;49.63;29.30;;;;;;;10.81;100.00;100616.69;5035438;28;20056;-71
2022/11/15 09:54:52;;;;;;;53.42;33.63;;;;;;;10.78;100.00;100615.03;5052845;28;20140;-74
2022/11/15 09:57:44;;;;;;;60.67;40.20;;;;;;;10.81;100.00;100565.81;5034731;28;20025;-73
2022/11/15 10:00:13;;;;;;;;;;;;;;;10.97;100.00;100654.50;5035268;28;20049;-71
2022/11/15 10:02:49;;;;;;;45.08;25.83;;;;;;;11.06;100.00;100656.03;5052896;28;19913;-71
2022/11/15 10:05:20;;;;;;;39.88;25.92;;;;;;;10.81;100.00;100635.31;5035253;28;20052;-71
2022/11/15 10:07:57;;;;;;;39.60;26.48;;;;;;;11.12;100.00;100643.19;5034892;28;20112;-70
2022/11/15 10:10:39;;;;;;;42.60;26.70;;;;;;;10.58;100.00;100530.63;5035170;28;20021;-71
2022/11/15 10:13:16;;;;;;;39.97;26.38;;;;;;;10.84;100.00;100550.47;5034926;28;20033;-71
2022/11/15 10:15:45;;;;;;;44.85;27.75;;;;;;;11.27;100.00;100612.34;5034684;28;20041;-74
2022/11/15 10:18:49;;;;;;;43.45;27.10;;;;;;;11.15;100.00;100622.81;5034711;28;20103;-70
2022/11/15 10:21:19;;;;;;;45.10;27.23;;;;;;;11.57;100.00;100624.44;5051824;28;20033;-72
2022/11/15 10:23:45;;;;;;;41.92;27.05;;;;;;;10.71;100.00;100500.75;5052315;28;20036;-71
2022/11/15 10:26:14;;;;;;;40.75;25.13;;;;;;;11.26;100.00;100605.59;5034855;28;20033;-73
2022/11/15 10:28:40;;;;;;;41.90;25.80;;;;;;;11.38;100.00;100609.59;5034972;28;20040;-71
2022/11/15 10:31:23;;;;;;;38.45;25.10;;;;;;;11.15;100.00;100566.81;4685833;28;10000447;-72
2022/11/15 10:33:49;;;;;;;41.13;25.15;;;;;;;11.31;100.00;100575.78;5051554;28;20032;-72
2022/11/15 10:36:17;;;;;;;41.42;26.60;;;;;;;11.67;100.00;100608.13;5052058;28;20113;-72
2022/11/15 10:38:52;;;;;;;35.53;24.83;;;;;;;11.65;100.00;100604.72;5070713;28;20043;-71
2022/11/15 10:41:27;;;;;;;43.40;27.65;;;;;;;11.11;100.00;100476.16;5052680;28;20107;-72
2022/11/15 10:44:16;;;;;;;41.75;27.17;;;;;;;11.54;100.00;100545.56;5052112;28;20036;-71
2022/11/15 10:46:46;;;;;;;35.97;23.95;;;;;;;11.50;100.00;100602.53;5052331;28;20047;-72
2022/11/15 10:49:28;;;;;;;35.92;22.13;;;;;;;11.25;100.00;100535.22;5054190;28;20036;-71
2022/11/15 10:52:11;;;;;;;37.90;24.80;;;;;;;11.71;100.00;100581.72;5054094;28;20105;-71
2022/11/15 10:54:46;;;;;;;35.50;24.42;;;;;;;11.84;100.00;100598.41;5053879;28;20055;-72
2022/11/15 10:57:15;;;;;;;37.13;25.05;;;;;;;11.45;100.00;100600.97;5053882;28;20036;-71
2022/11/15 10:59:46;;;;;;;37.20;24.50;;;;;;;11.44;100.00;100587.38;5053484;28;20500;-71
2022/11/15 11:02:37;;;;;;;38.70;24.92;;;;;;;11.71;100.00;100599.53;5054033;28;20430;-70
2022/11/15 11:05:23;;;;;;;37.33;25.80;;;;;;;11.98;100.00;100570.84;5053731;28;20028;-72
2022/11/15 11:07:59;;;;;;;40.22;25.48;;;;;;;11.79;100.00;100488.13;5053868;28;20029;-71
2022/11/15 11:10:25;;;;;;;41.92;27.02;;;;;;;11.92;100.00;100565.09;5071142;28;20032;-72
2022/11/15 11:12:50;;;;;;;40.67;26.60;;;;;;;11.94;100.00;100523.38;5053408;28;20028;-71
2022/11/15 11:15:17;;;;;;;37.97;25.17;;;;;;;12.24;100.00;100574.50;5053152;28;20151;-70
2022/11/15 11:18:09;;;;;;;37.92;25.85;;;;;;;12.06;100.00;100579.16;5053556;28;20413;-71
2022/11/15 11:21:09;;;;;;;37.92;25.00;;;;;;;12.13;100.00;100567.94;5052652;28;20036;-72
2022/11/15 11:23:46;;;;;;;43.40;28.65;;;;;;;11.93;100.00;100574.41;5052711;28;20037;-73
2022/11/15 11:26:27;;;;;;;41.63;26.67;;;;;;;11.81;100.00;100575.53;5053196;28;20432;-72
2022/11/15 11:29:14;;;;;;;37.80;26.08;;;;;;;11.89;100.00;100560.06;5053133;28;20435;-72
2022/11/15 11:31:48;;;;;;;38.97;25.63;;;;;;;11.93;100.00;100501.34;5053433;28;20032;-69
2022/11/15 11:35:02;;;;;;;39.17;25.98;;;;;;;12.19;100.00;100556.75;5071255;28;20043;-70
2022/11/15 11:37:45;;;;;;;36.72;26.27;;;;;;;12.08;100.00;100549.38;5035457;28;20043;-70